Time,TemperatureF,DewpointF,PressureIn,WindDirection,WindDirectionDegrees,WindSpeedMPH,WindSpeedGustMPH,Humidity,HourlyPrecipIn,Conditions,Clouds,dailyrainin,SoftwareType,DateUTC
2013-04-16 00:02:00,35.0,32.0,-100.00,West,275,12.0,16.0,91,0.00,,,0.00,,2013-04-16 05:02:00,
2013-04-16 00:12:00,35.0,32.0,-100.00,West,280,12.0,16.0,90,0.00,,,0.00,,2013-04-16 05:12:00,
2013-04-16 00:22:00,35.0,32.0,-100.00,WNW,295,18.0,21.0,89,0.00,,,0.00,,2013-04-16 05:22:00,
2013-04-16 00:32:00,35.0,32.0,-100.00,West,280,12.0,21.0,89,0.00,,,0.00,,2013-04-16 05:32:00,
2013-04-16 00:42:00,35.0,32.0,-100.00,WNW,285,14.0,20.0,89,0.00,,,0.00,,2013-04-16 05:42:00,
2013-04-16 00:52:00,35.0,32.0,-100.00,WNW,290,16.0,21.0,90,0.00,,,0.00,,2013-04-16 05:52:00,
2013-04-16 01:02:00,35.0,32.0,-100.00,WNW,285,15.0,19.0,90,0.00,,,0.00,,2013-04-16 06:02:00,
2013-04-16 01:12:00,35.0,32.0,-100.00,WNW,285,19.0,22.0,90,0.00,,,0.00,,2013-04-16 06:12:00,
2013-04-16 01:22:00,35.0,32.0,-100.00,WNW,290,14.0,17.0,90,0.00,,,0.00,,2013-04-16 06:22:00,
2013-04-16 01:32:00,35.0,32.0,-100.00,WNW,295,13.0,17.0,90,0.00,,,0.00,,2013-04-16 06:32:00,
2013-04-16 01:42:00,35.0,32.0,-100.00,WNW,290,17.0,22.0,89,0.00,,,0.00,,2013-04-16 06:42:00,
2013-04-16 01:52:00,35.0,32.0,-100.00,WNW,285,16.0,19.0,90,0.00,,,0.00,,2013-04-16 06:52:00,
2013-04-16 02:02:00,35.0,32.0,-100.00,WNW,295,16.0,22.0,90,0.00,,,0.00,,2013-04-16 07:02:00,
2013-04-16 02:12:00,35.0,32.0,-100.00,WNW,295,17.0,22.0,90,0.00,,,0.00,,2013-04-16 07:12:00,
2013-04-16 02:22:00,35.0,32.0,-100.00,WNW,295,17.0,22.0,89,0.00,,,0.00,,2013-04-16 07:22:00,
2013-04-16 02:32:00,34.0,32.0,-100.00,WNW,300,13.0,21.0,89,0.00,,,0.00,,2013-04-16 07:32:00,
2013-04-16 02:42:00,34.0,32.0,-100.00,WNW,295,15.0,23.0,89,0.00,,,0.00,,2013-04-16 07:42:00,
2013-04-16 02:53:00,34.0,32.0,-100.00,WNW,295,15.0,18.0,90,0.00,,,0.00,,2013-04-16 07:53:00,
2013-04-16 03:02:00,34.0,32.0,-100.00,WNW,295,15.0,22.0,89,0.00,,,0.00,,2013-04-16 08:02:00,
2013-04-16 03:12:00,34.0,32.0,-100.00,WNW,290,16.0,22.0,89,0.00,,,0.00,,2013-04-16 08:12:00,
2013-04-16 03:22:00,34.0,30.0,-100.00,WNW,295,12.0,22.0,89,0.00,,,0.00,,2013-04-16 08:22:00,
2013-04-16 03:32:00,34.0,32.0,-100.00,WNW,290,16.0,17.0,90,0.00,,,0.00,,2013-04-16 08:32:00,
2013-04-16 03:42:00,34.0,32.0,-100.00,WNW,295,12.0,16.0,90,0.00,,,0.00,,2013-04-16 08:42:00,
2013-04-16 03:52:00,34.0,32.0,-100.00,WNW,300,16.0,20.0,90,0.00,,,0.00,,2013-04-16 08:52:00,
2013-04-16 04:02:00,34.0,32.0,-100.00,WNW,290,12.0,17.0,90,0.00,,,0.00,,2013-04-16 09:02:00,
2013-04-16 04:12:00,34.0,32.0,-100.00,WNW,290,12.0,15.0,91,0.00,,,0.00,,2013-04-16 09:12:00,
2013-04-16 04:22:00,34.0,32.0,-100.00,NW,310,15.0,19.0,91,0.00,,,0.00,,2013-04-16 09:22:00,
2013-04-16 04:33:00,33.0,30.0,-100.00,NW,305,14.0,17.0,90,0.00,,,0.00,,2013-04-16 09:33:00,
2013-04-16 04:42:00,34.0,30.0,-100.00,WNW,300,12.0,17.0,90,0.00,,,0.00,,2013-04-16 09:42:00,
2013-04-16 04:52:00,33.0,30.0,-100.00,WNW,295,11.0,17.0,90,0.00,,,0.00,,2013-04-16 09:52:00,
2013-04-16 05:03:00,33.0,32.0,-100.00,WNW,300,17.0,21.0,91,0.00,,,0.00,,2013-04-16 10:03:00,
2013-04-16 05:13:00,33.0,30.0,-100.00,WNW,290,14.0,19.0,91,0.00,,,0.00,,2013-04-16 10:13:00,
2013-04-16 05:22:00,33.0,30.0,-100.00,WNW,295,14.0,17.0,91,0.00,,,0.00,,2013-04-16 10:22:00,
2013-04-16 05:33:00,33.0,30.0,-100.00,WNW,300,11.0,17.0,91,0.00,,,0.00,,2013-04-16 10:33:00,
2013-04-16 05:42:00,33.0,32.0,-100.00,NW,310,9.0,15.0,92,0.00,,,0.00,,2013-04-16 10:42:00,
2013-04-16 05:52:00,33.0,30.0,-100.00,WNW,300,13.0,21.0,91,0.00,,,0.00,,2013-04-16 10:52:00,
2013-04-16 06:02:00,33.0,30.0,-100.00,WNW,300,15.0,19.0,90,0.00,,,0.00,,2013-04-16 11:02:00,
2013-04-16 06:12:00,33.0,30.0,-100.00,NW,305,15.0,19.0,90,0.00,,,0.00,,2013-04-16 11:12:00,
2013-04-16 06:22:00,33.0,30.0,-100.00,WNW,300,17.0,21.0,89,0.00,,,0.00,,2013-04-16 11:22:00,
2013-04-16 06:32:00,33.0,30.0,-100.00,NW,310,12.0,19.0,90,0.00,,,0.00,,2013-04-16 11:32:00,
2013-04-16 06:42:00,33.0,30.0,-100.00,NW,315,17.0,22.0,89,0.00,,,0.00,,2013-04-16 11:42:00,
2013-04-16 06:52:00,33.0,30.0,-100.00,NW,310,18.0,22.0,89,0.00,,,0.00,,2013-04-16 11:52:00,
2013-04-16 07:02:00,33.0,30.0,-100.00,WNW,300,18.0,22.0,89,0.00,,,0.00,,2013-04-16 12:02:00,
2013-04-16 07:12:00,33.0,30.0,-100.00,NW,310,15.0,22.0,90,0.00,,,0.00,,2013-04-16 12:12:00,
2013-04-16 07:22:00,33.0,30.0,-100.00,WNW,300,11.0,15.0,91,0.00,,,0.00,,2013-04-16 12:22:00,
2013-04-16 07:32:00,33.0,30.0,-100.00,WNW,295,13.0,16.0,91,0.00,,,0.00,,2013-04-16 12:32:00,
2013-04-16 07:42:00,33.0,30.0,-100.00,WNW,300,12.0,17.0,92,0.00,,,0.00,,2013-04-16 12:42:00,
2013-04-16 07:52:00,33.0,30.0,-100.00,NW,310,12.0,16.0,91,0.00,,,0.00,,2013-04-16 12:52:00,
2013-04-16 08:02:00,33.0,30.0,-100.00,NW,305,10.0,12.0,91,0.00,,,0.00,,2013-04-16 13:02:00,
2013-04-16 08:12:00,33.0,30.0,-100.00,NW,320,11.0,16.0,91,0.00,,,0.00,,2013-04-16 13:12:00,
2013-04-16 08:22:00,33.0,30.0,-100.00,WNW,300,12.0,15.0,91,0.00,,,0.00,,2013-04-16 13:22:00,
2013-04-16 08:32:00,33.0,30.0,-100.00,NW,305,11.0,14.0,91,0.00,,,0.00,,2013-04-16 13:32:00,
2013-04-16 08:42:00,33.0,32.0,-100.00,NW,320,11.0,16.0,91,0.00,,,0.00,,2013-04-16 13:42:00,
2013-04-16 08:52:00,33.0,30.0,-100.00,NNW,330,14.0,17.0,90,0.00,,,0.00,,2013-04-16 13:52:00,
2013-04-16 09:02:00,33.0,30.0,-100.00,NW,325,12.0,16.0,88,0.00,,,0.00,,2013-04-16 14:02:00,
2013-04-16 09:12:00,33.0,30.0,-100.00,NW,320,12.0,17.0,88,0.00,,,0.00,,2013-04-16 14:12:00,
2013-04-16 09:22:00,34.0,30.0,-100.00,NW,310,9.0,12.0,88,0.00,,,0.00,,2013-04-16 14:22:00,
2013-04-16 09:32:00,34.0,30.0,-100.00,NW,310,9.0,12.0,88,0.00,,,0.00,,2013-04-16 14:32:00,
2013-04-16 09:42:00,34.0,32.0,-100.00,NW,305,9.0,12.0,90,0.00,,,0.00,,2013-04-16 14:42:00,
2013-04-16 09:52:00,34.0,32.0,-100.00,NW,305,11.0,14.0,90,0.00,,,0.00,,2013-04-16 14:52:00,
2013-04-16 10:02:00,34.0,32.0,-100.00,NW,315,10.0,13.0,90,0.00,,,0.00,,2013-04-16 15:02:00,
2013-04-16 10:12:00,34.0,32.0,-100.00,WNW,295,7.0,12.0,90,0.00,,,0.00,,2013-04-16 15:12:00,
2013-04-16 10:22:00,34.0,30.0,-100.00,NW,305,9.0,12.0,90,0.00,,,0.00,,2013-04-16 15:22:00,
2013-04-16 10:33:00,34.0,30.0,-100.00,NW,305,10.0,12.0,89,0.00,,,0.00,,2013-04-16 15:33:00,
2013-04-16 10:43:00,34.0,32.0,-100.00,NW,310,9.0,12.0,89,0.00,,,0.00,,2013-04-16 15:43:00,
2013-04-16 10:52:00,36.0,32.0,-100.00,NW,320,7.0,10.0,87,0.00,,,0.00,,2013-04-16 15:52:00,
2013-04-16 11:03:00,35.0,32.0,-100.00,NW,310,6.0,10.0,85,0.00,,,0.00,,2013-04-16 16:03:00,
2013-04-16 11:13:00,36.0,32.0,-100.00,WNW,295,8.0,9.0,85,0.00,,,0.00,,2013-04-16 16:13:00,
2013-04-16 11:23:00,36.0,32.0,-100.00,WNW,300,10.0,11.0,83,0.00,,,0.00,,2013-04-16 16:23:00,
2013-04-16 11:32:00,36.0,32.0,-100.00,WNW,300,10.0,11.0,83,0.00,,,0.00,,2013-04-16 16:32:00,
2013-04-16 11:42:00,36.0,32.0,-100.00,WNW,300,10.0,11.0,83,0.00,,,0.00,,2013-04-16 16:42:00,
2013-04-16 11:52:00,36.0,32.0,-100.00,WNW,300,10.0,11.0,83,0.00,,,0.00,,2013-04-16 16:52:00,
2013-04-16 12:02:00,36.0,32.0,-100.00,WNW,300,10.0,11.0,83,0.00,,,0.00,,2013-04-16 17:02:00,
2013-04-16 12:33:00,37.0,30.0,-100.00,WNW,300,14.0,16.0,77,0.00,,,0.00,,2013-04-16 17:33:00,
2013-04-16 12:43:00,37.0,30.0,-100.00,NW,315,11.0,14.0,78,0.00,,,0.00,,2013-04-16 17:43:00,
2013-04-16 12:53:00,37.0,30.0,-100.00,NW,315,9.0,11.0,77,0.00,,,0.00,,2013-04-16 17:53:00,
2013-04-16 13:02:00,38.0,32.0,-100.00,NW,320,9.0,11.0,76,0.00,,,0.00,,2013-04-16 18:02:00,
2013-04-16 13:12:00,38.0,30.0,-100.00,NW,320,7.0,11.0,75,0.00,,,0.00,,2013-04-16 18:12:00,
2013-04-16 13:22:00,39.0,32.0,-100.00,NNW,330,7.0,10.0,75,0.00,,,0.00,,2013-04-16 18:22:00,
2013-04-16 13:32:00,39.0,32.0,-100.00,WNW,300,5.0,10.0,73,0.00,,,0.00,,2013-04-16 18:32:00,
2013-04-16 13:42:00,40.0,32.0,-100.00,NNW,330,6.0,8.0,73,0.00,,,0.00,,2013-04-16 18:42:00,
2013-04-16 13:52:00,40.0,32.0,-100.00,WNW,285,4.0,8.0,72,0.00,,,0.00,,2013-04-16 18:52:00,
2013-04-16 14:02:00,40.0,32.0,-100.00,NW,320,7.0,9.0,72,0.00,,,0.00,,2013-04-16 19:02:00,
2013-04-16 14:12:00,41.0,32.0,-100.00,NW,310,4.0,8.0,72,0.00,,,0.00,,2013-04-16 19:12:00,
2013-04-16 14:22:00,40.0,32.0,-100.00,NNW,345,7.0,9.0,72,0.00,,,0.00,,2013-04-16 19:22:00,
2013-04-16 14:32:00,40.0,32.0,-100.00,NW,310,6.0,9.0,72,0.00,,,0.00,,2013-04-16 19:32:00,
2013-04-16 14:42:00,41.0,32.0,-100.00,WNW,290,4.0,7.0,70,0.00,,,0.00,,2013-04-16 19:42:00,
2013-04-16 14:52:00,40.0,32.0,-100.00,NW,320,7.0,8.0,70,0.00,,,0.00,,2013-04-16 19:52:00,
2013-04-16 15:02:00,41.0,32.0,-100.00,WNW,290,6.0,10.0,71,0.00,,,0.00,,2013-04-16 20:02:00,
2013-04-16 15:12:00,40.0,32.0,-100.00,WNW,300,9.0,11.0,70,0.00,,,0.00,,2013-04-16 20:12:00,
2013-04-16 15:22:00,41.0,32.0,-100.00,NW,320,7.0,9.0,71,0.00,,,0.00,,2013-04-16 20:22:00,
2013-04-16 15:32:00,40.0,32.0,-100.00,NW,315,7.0,12.0,70,0.00,,,0.00,,2013-04-16 20:32:00,
2013-04-16 15:42:00,41.0,32.0,-100.00,NW,305,7.0,10.0,70,0.00,,,0.00,,2013-04-16 20:42:00,
2013-04-16 15:52:00,41.0,32.0,-100.00,NW,310,6.0,13.0,68,0.00,,,0.00,,2013-04-16 20:52:00,
2013-04-16 16:02:00,41.0,32.0,-100.00,NW,325,7.0,12.0,68,0.00,,,0.00,,2013-04-16 21:02:00,
2013-04-16 16:12:00,42.0,32.0,-100.00,North,350,7.0,10.0,68,0.00,,,0.00,,2013-04-16 21:12:00,
2013-04-16 16:22:00,41.0,32.0,-100.00,North,355,6.0,10.0,67,0.00,,,0.00,,2013-04-16 21:22:00,
2013-04-16 16:32:00,41.0,32.0,-100.00,North,5,8.0,12.0,68,0.00,,,0.00,,2013-04-16 21:32:00,
2013-04-16 16:43:00,41.0,32.0,-100.00,NNW,340,6.0,12.0,68,0.00,,,0.00,,2013-04-16 21:43:00,
2013-04-16 16:52:00,42.0,32.0,-100.00,North,355,9.0,11.0,68,0.00,,,0.00,,2013-04-16 21:52:00,
2013-04-16 17:02:00,42.0,32.0,-100.00,NNW,340,6.0,9.0,67,0.00,,,0.00,,2013-04-16 22:02:00,
2013-04-16 17:13:00,42.0,32.0,-100.00,NW,325,8.0,9.0,67,0.00,,,0.00,,2013-04-16 22:13:00,
2013-04-16 17:22:00,42.0,32.0,-100.00,NNW,340,7.0,9.0,66,0.00,,,0.00,,2013-04-16 22:22:00,
2013-04-16 17:33:00,42.0,32.0,-100.00,NNW,340,6.0,9.0,66,0.00,,,0.00,,2013-04-16 22:33:00,
2013-04-16 17:42:00,42.0,32.0,-100.00,NNW,340,7.0,9.0,67,0.00,,,0.00,,2013-04-16 22:42:00,
2013-04-16 17:52:00,42.0,30.0,-100.00,NW,320,5.0,8.0,65,0.00,,,0.00,,2013-04-16 22:52:00,
2013-04-16 18:02:00,42.0,30.0,-100.00,NNW,345,4.0,9.0,65,0.00,,,0.00,,2013-04-16 23:02:00,
2013-04-16 18:12:00,42.0,30.0,-100.00,NNW,335,3.0,7.0,64,0.00,,,0.00,,2013-04-16 23:12:00,
2013-04-16 18:22:00,42.0,30.0,-100.00,North,355,4.0,6.0,63,0.00,,,0.00,,2013-04-16 23:22:00,
2013-04-16 18:32:00,42.0,30.0,-100.00,NNW,340,2.0,6.0,62,0.00,,,0.00,,2013-04-16 23:32:00,
2013-04-16 18:42:00,42.0,30.0,-100.00,NNW,345,4.0,6.0,63,0.00,,,0.00,,2013-04-16 23:42:00,
2013-04-16 18:52:00,42.0,30.0,-100.00,NNW,335,6.0,7.0,65,0.00,,,0.00,,2013-04-16 23:52:00,
2013-04-16 19:02:00,42.0,30.0,-100.00,NNW,335,3.0,7.0,65,0.00,,,0.00,,2013-04-17 00:02:00,
2013-04-16 19:12:00,42.0,30.0,-100.00,North,5,5.0,6.0,64,0.00,,,0.00,,2013-04-17 00:12:00,
2013-04-16 19:22:00,41.0,30.0,-100.00,North,350,5.0,7.0,67,0.00,,,0.00,,2013-04-17 00:22:00,
2013-04-16 19:32:00,41.0,32.0,-100.00,North,10,4.0,6.0,69,0.00,,,0.00,,2013-04-17 00:32:00,
2013-04-16 19:42:00,40.0,32.0,-100.00,NNW,340,4.0,4.0,71,0.00,,,0.00,,2013-04-17 00:42:00,
2013-04-16 19:52:00,40.0,32.0,-100.00,NNW,340,4.0,5.0,74,0.00,,,0.00,,2013-04-17 00:52:00,
2013-04-16 20:02:00,39.0,32.0,-100.00,NNW,340,4.0,6.0,76,0.00,,,0.00,,2013-04-17 01:02:00,
2013-04-16 20:12:00,39.0,32.0,-100.00,NW,320,4.0,4.0,76,0.00,,,0.00,,2013-04-17 01:12:00,
2013-04-16 20:22:00,39.0,32.0,-100.00,NW,320,4.0,4.0,76,0.00,,,0.00,,2013-04-17 01:22:00,
2013-04-16 20:32:00,38.0,32.0,-100.00,NW,325,5.0,6.0,77,0.00,,,0.00,,2013-04-17 01:32:00,
2013-04-16 20:42:00,38.0,32.0,-100.00,NW,325,6.0,7.0,79,0.00,,,0.00,,2013-04-17 01:42:00,
2013-04-16 20:52:00,38.0,32.0,-100.00,NNW,330,4.0,6.0,79,0.00,,,0.00,,2013-04-17 01:52:00,
2013-04-16 21:02:00,37.0,32.0,-100.00,NW,325,4.0,5.0,80,0.00,,,0.00,,2013-04-17 02:02:00,
2013-04-16 21:12:00,37.0,32.0,-100.00,NNW,330,3.0,4.0,80,0.00,,,0.00,,2013-04-17 02:12:00,
2013-04-16 21:22:00,37.0,32.0,-100.00,NNW,335,4.0,4.0,82,0.00,,,0.00,,2013-04-17 02:22:00,
2013-04-16 21:32:00,36.0,32.0,-100.00,NNW,335,4.0,4.0,83,0.00,,,0.00,,2013-04-17 02:32:00,
2013-04-16 21:42:00,36.0,32.0,-100.00,NNW,335,4.0,5.0,84,0.00,,,0.00,,2013-04-17 02:42:00,
2013-04-16 21:52:00,36.0,32.0,-100.00,NW,325,4.0,6.0,84,0.00,,,0.00,,2013-04-17 02:52:00,
2013-04-16 22:02:00,36.0,32.0,-100.00,NNW,330,4.0,5.0,84,0.00,,,0.00,,2013-04-17 03:02:00,
2013-04-16 22:12:00,36.0,32.0,-100.00,NNW,330,5.0,6.0,85,0.00,,,0.00,,2013-04-17 03:12:00,
2013-04-16 22:22:00,37.0,34.0,-100.00,NW,325,6.0,7.0,85,0.00,,,0.00,,2013-04-17 03:22:00,
2013-04-16 22:33:00,36.0,34.0,-100.00,NNW,335,6.0,7.0,86,0.00,,,0.00,,2013-04-17 03:33:00,
2013-04-16 22:42:00,36.0,34.0,-100.00,NNW,340,5.0,7.0,87,0.00,,,0.00,,2013-04-17 03:42:00,
2013-04-16 22:53:00,36.0,34.0,-100.00,NNW,345,6.0,7.0,90,0.00,,,0.00,,2013-04-17 03:53:00,
2013-04-16 23:03:00,36.0,34.0,-100.00,NNW,345,6.0,7.0,92,0.00,,,0.00,,2013-04-17 04:03:00,
2013-04-16 23:13:00,35.0,34.0,-100.00,NNW,345,6.0,7.0,92,0.00,,,0.00,,2013-04-17 04:13:00,
2013-04-16 23:22:00,35.0,34.0,-100.00,NNW,335,7.0,7.0,94,0.00,,,0.00,,2013-04-17 04:22:00,
2013-04-16 23:33:00,35.0,34.0,-100.00,NNW,330,7.0,9.0,94,0.00,,,0.00,,2013-04-17 04:33:00,
2013-04-16 23:42:00,35.0,34.0,-100.00,NW,310,6.0,7.0,94,0.00,,,0.00,,2013-04-17 04:42:00,
2013-04-16 23:52:00,35.0,34.0,-100.00,NW,325,6.0,8.0,94,0.00,,,0.00,,2013-04-17 04:52:00,